Allisona, Tennessee
Current Conditions -  °F | °C
As of 3:37 PM on Friday 31 Oct 2014 (Local Time) from KBNA Reporting Station
Overcast Overcast  
Wind Chill: 36°   Ceiling: 1800
Heat Index: 43°   Visibility: 10mi
Dew Point: 37°   Wind: 14mph
Humidity: 81%   Direction: 340°NNW
Pressure: 30.06"   Gusts: 21mph
Location:  35.7808°N, 86.7221°W
Report Text: KBNA 312037Z 34012G18KT 10SM BKN018 OVC038 06/03 A3006 RMK AO2 RAB17E26 P0000
Loading
Personal Weather Stations






























Interactive Weather Map
Tropical Storm Tracking
New forecast layout! Learn more

10-Day Weather Forecast

Advertisements
Track Severe Weather on mobile